createdAt,value
2024-02-29T00:00:05.924Z,19.98
2024-02-29T00:02:51.143Z,21.03
2024-02-29T00:05:37.736Z,19.75
2024-02-29T00:08:23.064Z,14.23
2024-02-29T00:11:08.361Z,20.08
2024-02-29T00:13:53.958Z,21.58
2024-02-29T00:16:40.735Z,23.88
2024-02-29T00:19:25.874Z,22.25
2024-02-29T00:22:11.430Z,19.30
2024-02-29T00:24:56.878Z,19.77
2024-02-29T00:27:42.312Z,19.75
2024-02-29T00:30:27.667Z,15.73
2024-02-29T00:33:12.998Z,20.48
2024-02-29T00:36:08.902Z,33.53
2024-02-29T00:39:05.724Z,23.38
2024-02-29T00:41:56.964Z,22.88
2024-02-29T00:44:42.437Z,20.83
2024-02-29T00:47:27.904Z,27.77
2024-02-29T00:50:13.656Z,30.67
2024-02-29T00:52:58.669Z,28.63
2024-02-29T00:55:44.617Z,39.35
2024-02-29T00:58:29.854Z,44.92
2024-02-29T01:01:15.341Z,39.05
2024-02-29T01:04:00.689Z,44.90
2024-02-29T01:06:46.050Z,35.05
2024-02-29T01:09:31.430Z,41.10
2024-02-29T01:12:16.860Z,47.53
2024-02-29T01:15:02.111Z,48.20
2024-02-29T01:17:50.637Z,41.33
2024-02-29T01:20:36.983Z,47.60
2024-02-29T01:23:22.370Z,44.65
2024-02-29T01:26:08.082Z,40.30
2024-02-29T01:28:53.426Z,44.03
2024-02-29T01:31:38.902Z,43.97
2024-02-29T01:34:24.369Z,46.13
2024-02-29T01:37:09.828Z,39.53
2024-02-29T01:39:55.181Z,40.00
2024-02-29T01:42:43.797Z,47.53
2024-02-29T01:45:29.690Z,34.92
2024-02-29T01:48:15.478Z,41.13
2024-02-29T01:51:00.629Z,36.95
2024-02-29T01:53:46.290Z,34.30
2024-02-29T01:56:31.813Z,38.55
2024-02-29T01:59:18.344Z,34.90
2024-02-29T02:02:03.672Z,38.58
2024-02-29T02:04:48.967Z,36.08
2024-02-29T02:07:36.710Z,45.75
2024-02-29T02:10:22.903Z,40.00
2024-02-29T02:13:09.019Z,40.70
2024-02-29T02:15:54.861Z,54.35
2024-02-29T02:18:40.291Z,50.58
2024-02-29T02:21:25.622Z,48.30
2024-02-29T02:24:11.049Z,45.10
2024-02-29T02:26:56.686Z,44.22
2024-02-29T02:29:41.930Z,48.88
2024-02-29T02:32:27.349Z,52.65
2024-02-29T02:35:12.912Z,51.33
2024-02-29T02:37:58.062Z,53.47
2024-02-29T02:40:43.607Z,48.42
2024-02-29T02:43:29.183Z,44.72
2024-02-29T02:46:14.763Z,38.45
2024-02-29T02:49:00.191Z,49.55
2024-02-29T02:51:45.914Z,44.67
2024-02-29T02:54:31.198Z,37.35
2024-02-29T02:57:17.068Z,48.15
2024-02-29T03:00:02.445Z,36.55
2024-02-29T03:02:47.933Z,48.72
2024-02-29T03:05:33.285Z,42.00
2024-02-29T03:08:18.771Z,41.42
2024-02-29T03:11:04.525Z,43.33
2024-02-29T03:13:50.025Z,38.35
2024-02-29T03:16:35.742Z,43.22
2024-02-29T03:19:20.826Z,43.28
2024-02-29T03:22:06.153Z,40.05
2024-02-29T03:24:53.339Z,40.45
2024-02-29T03:27:38.979Z,33.45
2024-02-29T03:30:24.401Z,38.63
2024-02-29T03:33:10.718Z,43.00
2024-02-29T03:35:56.239Z,42.67
2024-02-29T03:38:41.741Z,42.20
2024-02-29T03:41:27.811Z,33.85
2024-02-29T03:44:12.935Z,35.97
2024-02-29T03:46:58.350Z,34.38
2024-02-29T03:49:43.663Z,36.60
2024-02-29T03:52:29.070Z,34.90
2024-02-29T03:55:14.827Z,34.92
2024-02-29T03:58:00.360Z,32.88
2024-02-29T04:00:45.664Z,30.25
2024-02-29T04:03:31.117Z,36.28
2024-02-29T04:06:16.544Z,34.72
2024-02-29T04:09:02.734Z,33.35
2024-02-29T04:11:47.954Z,33.53
2024-02-29T04:14:35.171Z,34.50
2024-02-29T04:17:20.585Z,36.65
2024-02-29T04:20:07.011Z,39.45
2024-02-29T04:22:52.128Z,37.33
2024-02-29T04:25:38.280Z,32.78
2024-02-29T04:28:23.751Z,35.67
2024-02-29T04:31:10.200Z,33.38
2024-02-29T04:33:55.650Z,41.28
2024-02-29T04:36:41.041Z,40.58
2024-02-29T04:39:26.528Z,41.42
2024-02-29T04:42:11.972Z,35.35
2024-02-29T04:44:57.524Z,42.53
2024-02-29T04:47:43.168Z,35.13
2024-02-29T04:50:28.590Z,40.85
2024-02-29T04:53:15.381Z,38.47
2024-02-29T04:56:01.828Z,49.08
2024-02-29T04:58:47.029Z,42.10
2024-02-29T05:01:33.433Z,40.70
2024-02-29T05:04:18.707Z,44.28
2024-02-29T05:07:05.211Z,39.53
2024-02-29T05:09:50.654Z,41.22
2024-02-29T05:12:36.112Z,49.75
2024-02-29T05:15:22.290Z,107.60
2024-02-29T05:18:08.375Z,116.10
2024-02-29T05:20:53.973Z,92.97
2024-02-29T05:23:39.445Z,61.95
2024-02-29T05:26:24.868Z,62.47
2024-02-29T05:29:10.244Z,66.90
2024-02-29T05:31:55.832Z,62.85
2024-02-29T05:34:41.013Z,66.10
2024-02-29T05:37:26.551Z,71.18
2024-02-29T05:40:14.110Z,78.93
2024-02-29T05:42:59.225Z,170.88
2024-02-29T05:45:44.979Z,154.75
2024-02-29T05:48:35.783Z,193.75
2024-02-29T05:51:21.357Z,143.20
2024-02-29T05:54:06.957Z,137.50
2024-02-29T05:56:51.952Z,147.82
2024-02-29T05:59:37.542Z,109.97
2024-02-29T06:02:22.716Z,133.55
2024-02-29T06:05:09.071Z,172.80
2024-02-29T06:07:54.927Z,142.32
2024-02-29T06:10:40.062Z,156.57
2024-02-29T06:13:29.965Z,132.93
2024-02-29T06:16:15.642Z,107.55
2024-02-29T06:19:01.206Z,88.55
2024-02-29T06:21:47.102Z,77.13
2024-02-29T06:24:32.375Z,78.25
2024-02-29T06:27:18.592Z,86.82
2024-02-29T06:30:05.432Z,114.32
2024-02-29T06:32:50.701Z,118.07
2024-02-29T06:35:36.024Z,98.18
2024-02-29T06:38:21.972Z,77.07
2024-02-29T06:41:10.434Z,65.95
2024-02-29T06:43:55.584Z,75.05
2024-02-29T06:46:40.925Z,71.57
2024-02-29T06:49:26.316Z,60.80
2024-02-29T06:52:11.764Z,62.45
2024-02-29T06:54:57.346Z,62.83
2024-02-29T06:57:43.464Z,52.60
2024-02-29T07:00:28.672Z,64.32
2024-02-29T07:03:13.895Z,57.13
2024-02-29T07:05:59.519Z,61.33
2024-02-29T07:08:44.986Z,63.70
2024-02-29T07:11:31.953Z,70.43
2024-02-29T07:14:17.787Z,65.57
2024-02-29T07:17:02.917Z,73.65
2024-02-29T07:19:48.338Z,62.45
2024-02-29T07:22:33.511Z,72.20
2024-02-29T07:25:18.739Z,73.63
2024-02-29T07:28:04.690Z,62.40
2024-02-29T07:30:50.414Z,65.78
2024-02-29T07:33:36.584Z,78.95
2024-02-29T07:36:22.922Z,63.05
2024-02-29T07:39:08.722Z,62.25
2024-02-29T07:41:54.237Z,59.97
2024-02-29T07:44:39.575Z,68.65
2024-02-29T07:47:24.848Z,70.13
2024-02-29T07:50:11.004Z,61.50
2024-02-29T07:52:56.215Z,72.53
2024-02-29T07:55:41.687Z,60.47
2024-02-29T07:58:27.580Z,49.85
2024-02-29T08:01:12.964Z,57.88
2024-02-29T08:03:59.695Z,54.40
2024-02-29T08:06:45.194Z,46.75
2024-02-29T08:09:30.631Z,60.15
2024-02-29T08:12:15.996Z,65.90
2024-02-29T08:15:01.405Z,50.47
2024-02-29T08:17:47.898Z,50.65
2024-02-29T08:20:33.213Z,60.53
2024-02-29T08:23:18.651Z,57.13
2024-02-29T08:26:11.046Z,53.08
2024-02-29T08:28:56.472Z,59.70
2024-02-29T08:31:42.866Z,59.90
2024-02-29T08:34:28.525Z,56.58
2024-02-29T08:37:14.107Z,53.83
2024-02-29T08:39:59.528Z,54.90
2024-02-29T08:42:44.915Z,55.70
2024-02-29T08:45:30.667Z,53.13
2024-02-29T08:48:15.879Z,49.85
2024-02-29T08:51:01.285Z,61.60
2024-02-29T08:53:47.030Z,41.13
2024-02-29T08:56:32.322Z,50.17
2024-02-29T08:59:18.717Z,58.55
2024-02-29T09:02:05.697Z,48.40
2024-02-29T09:04:51.621Z,50.00
2024-02-29T09:07:37.376Z,45.13
2024-02-29T09:10:23.163Z,48.55
2024-02-29T09:13:20.464Z,54.83
2024-02-29T09:16:14.065Z,50.03
2024-02-29T09:19:02.632Z,47.63
2024-02-29T09:21:49.359Z,46.70
2024-02-29T09:24:34.642Z,42.88
2024-02-29T09:27:20.443Z,38.80
2024-02-29T09:30:06.934Z,47.72
2024-02-29T09:32:54.060Z,45.53
2024-02-29T09:35:39.621Z,46.40
2024-02-29T09:38:26.081Z,52.63
2024-02-29T09:44:05.256Z,44.63
2024-02-29T09:46:51.689Z,46.83
2024-02-29T09:49:37.102Z,40.03
2024-02-29T09:52:26.379Z,44.33
2024-02-29T09:55:16.610Z,47.83
2024-02-29T09:58:03.007Z,50.20
2024-02-29T10:00:49.154Z,47.72
2024-02-29T10:03:34.661Z,52.35
2024-02-29T10:06:20.522Z,40.15
2024-02-29T10:09:06.003Z,45.22
2024-02-29T10:11:54.455Z,37.30
2024-02-29T10:14:39.724Z,44.43
2024-02-29T10:17:25.701Z,36.20
2024-02-29T10:20:14.333Z,40.35
2024-02-29T10:22:59.876Z,34.67
2024-02-29T10:25:49.494Z,34.72
2024-02-29T10:28:34.912Z,34.45
2024-02-29T10:31:20.391Z,32.97
2024-02-29T10:34:05.858Z,36.55
2024-02-29T10:36:51.551Z,38.03
2024-02-29T10:39:39.690Z,37.05
2024-02-29T10:42:25.428Z,35.08
2024-02-29T10:45:15.324Z,39.53
2024-02-29T10:48:38.694Z,37.70
2024-02-29T10:51:42.290Z,35.75
2024-02-29T10:54:43.397Z,38.78
2024-02-29T10:57:43.752Z,32.03
2024-02-29T11:00:29.250Z,37.85
2024-02-29T11:03:14.660Z,39.83
2024-02-29T11:06:01.884Z,31.50
2024-02-29T11:08:47.878Z,33.70
2024-02-29T11:11:33.044Z,37.25
2024-02-29T11:14:21.608Z,32.17
2024-02-29T11:17:06.973Z,33.72
2024-02-29T11:20:08.407Z,37.53
2024-02-29T11:23:10.517Z,37.15
2024-02-29T11:25:58.318Z,33.88
2024-02-29T11:28:43.868Z,41.92
2024-02-29T11:31:28.967Z,30.25
2024-02-29T11:34:17.594Z,35.10
2024-02-29T11:37:06.337Z,30.60
2024-02-29T11:42:39.454Z,28.73
2024-02-29T11:45:27.021Z,32.28
2024-02-29T11:48:12.478Z,29.05
2024-02-29T11:50:57.831Z,28.23
2024-02-29T11:53:44.822Z,36.85
2024-02-29T11:56:31.252Z,28.33
2024-02-29T11:59:19.591Z,25.05
2024-02-29T12:02:07.030Z,29.02
2024-02-29T12:04:52.888Z,28.07
2024-02-29T12:07:38.494Z,24.52
2024-02-29T12:10:24.988Z,29.60
2024-02-29T12:13:10.693Z,33.22
2024-02-29T12:15:57.194Z,25.42
2024-02-29T12:18:42.997Z,31.35
2024-02-29T12:21:28.546Z,27.58
2024-02-29T12:24:14.524Z,26.58
2024-02-29T12:27:00.291Z,34.13
2024-02-29T12:29:45.739Z,31.73
2024-02-29T12:32:30.988Z,29.90
2024-02-29T12:35:17.701Z,29.92
2024-02-29T12:38:04.478Z,28.33
2024-02-29T12:40:53.073Z,28.42
2024-02-29T12:43:39.950Z,26.48
2024-02-29T12:46:26.340Z,33.25
2024-02-29T12:49:12.129Z,26.73
2024-02-29T12:51:57.912Z,32.92
2024-02-29T12:54:43.519Z,24.08
2024-02-29T12:57:28.705Z,30.23
2024-02-29T13:00:21.109Z,32.65
2024-02-29T13:03:08.901Z,23.55
2024-02-29T13:05:55.397Z,28.23
2024-02-29T13:08:40.714Z,22.95
2024-02-29T13:11:26.095Z,13.63
2024-02-29T13:14:11.681Z,16.60
2024-02-29T13:16:57.559Z,18.92
2024-02-29T13:19:42.781Z,13.02
2024-02-29T13:22:28.435Z,12.13
2024-02-29T13:43:41.114Z,15.02
2024-02-29T13:46:29.785Z,18.27
2024-02-29T13:49:21.654Z,11.43
2024-02-29T13:52:08.616Z,15.65
2024-02-29T13:54:53.938Z,11.63
2024-02-29T13:57:40.363Z,14.23
2024-02-29T14:00:26.018Z,14.27
2024-02-29T14:03:12.805Z,12.25
2024-02-29T14:05:58.164Z,11.18
2024-02-29T14:08:43.970Z,18.15
2024-02-29T14:11:29.617Z,18.70
2024-02-29T14:14:15.481Z,13.85
2024-02-29T14:17:02.121Z,21.60
2024-02-29T14:19:47.380Z,17.17
2024-02-29T14:22:33.661Z,16.10
2024-02-29T14:25:19.601Z,17.50
2024-02-29T14:28:05.284Z,15.57
2024-02-29T14:30:50.384Z,15.45
2024-02-29T14:33:36.162Z,20.38
2024-02-29T14:36:21.884Z,19.98
2024-02-29T14:39:12.891Z,13.07
2024-02-29T14:41:58.589Z,14.95
2024-02-29T14:44:44.007Z,14.63
2024-02-29T14:47:30.198Z,16.50
2024-02-29T14:50:15.497Z,14.18
2024-02-29T14:53:01.049Z,17.35
2024-02-29T14:55:46.635Z,13.30
2024-02-29T14:58:32.109Z,16.08
2024-02-29T15:01:17.822Z,13.43
2024-02-29T15:04:03.009Z,17.40
2024-02-29T15:06:48.454Z,19.40
2024-02-29T15:09:33.932Z,14.02
2024-02-29T15:12:19.297Z,17.50
2024-02-29T15:15:05.307Z,15.05
2024-02-29T15:17:50.853Z,12.02
2024-02-29T15:20:36.352Z,15.90
2024-02-29T15:23:21.853Z,17.90
2024-02-29T15:26:11.622Z,13.02
2024-02-29T15:28:56.627Z,15.85
2024-02-29T15:31:43.272Z,11.25
2024-02-29T15:34:28.804Z,9.13
2024-02-29T15:37:14.138Z,13.90
2024-02-29T15:40:00.702Z,13.50
2024-02-29T15:42:45.747Z,10.07
2024-02-29T15:45:31.095Z,13.50
2024-02-29T15:48:16.485Z,18.38
2024-02-29T15:51:02.194Z,9.10
2024-02-29T15:53:47.782Z,15.48
2024-02-29T15:56:33.055Z,9.73
2024-02-29T15:59:18.491Z,15.95
2024-02-29T16:02:04.123Z,14.02
2024-02-29T16:04:49.534Z,13.30
2024-02-29T16:07:34.776Z,12.25
2024-02-29T16:10:20.146Z,15.40
2024-02-29T16:13:05.987Z,11.10
2024-02-29T16:15:51.441Z,20.42
2024-02-29T16:18:37.033Z,12.65
2024-02-29T16:21:22.339Z,14.00
2024-02-29T16:24:07.967Z,11.15
2024-02-29T16:26:56.454Z,10.95
2024-02-29T16:29:41.735Z,13.63
2024-02-29T16:32:27.049Z,11.07
2024-02-29T16:35:12.928Z,12.25
2024-02-29T16:37:59.611Z,15.05
2024-02-29T16:40:45.649Z,14.82
2024-02-29T16:43:31.098Z,18.05
2024-02-29T16:46:17.952Z,17.05
2024-02-29T16:49:03.153Z,24.38
2024-02-29T16:51:48.501Z,29.20
2024-02-29T16:54:33.705Z,31.17
2024-02-29T16:57:19.384Z,26.40
2024-02-29T17:00:05.259Z,23.85
2024-02-29T17:02:50.768Z,19.80
2024-02-29T17:05:35.836Z,21.10
2024-02-29T17:08:21.303Z,21.70
2024-02-29T17:11:06.912Z,23.35
2024-02-29T17:13:52.779Z,17.52
2024-02-29T17:16:38.563Z,29.42
2024-02-29T17:19:24.176Z,19.67
2024-02-29T17:22:09.594Z,18.77
2024-02-29T17:24:58.840Z,25.42
2024-02-29T17:27:44.326Z,19.65
2024-02-29T17:30:29.699Z,23.30
2024-02-29T17:33:15.034Z,29.67
2024-02-29T17:36:00.090Z,30.23
2024-02-29T17:38:45.720Z,21.95
2024-02-29T17:41:31.201Z,20.85
2024-02-29T17:44:20.172Z,20.67
2024-02-29T17:47:05.868Z,19.90
2024-02-29T17:49:50.891Z,15.60
2024-02-29T17:52:36.152Z,17.83
2024-02-29T17:55:21.608Z,24.60
2024-02-29T17:58:06.661Z,21.13
2024-02-29T18:00:52.254Z,20.42
2024-02-29T18:03:37.471Z,21.48
2024-02-29T18:06:23.006Z,13.55
2024-02-29T18:09:11.433Z,19.23
2024-02-29T18:11:56.613Z,15.57
2024-02-29T18:14:41.763Z,15.75
2024-02-29T18:17:27.276Z,15.52
2024-02-29T18:20:15.620Z,18.15
2024-02-29T18:23:00.777Z,19.23
2024-02-29T18:25:47.483Z,17.95
2024-02-29T18:28:32.766Z,15.73
2024-02-29T18:34:24.971Z,13.60
2024-02-29T18:37:10.565Z,15.20
2024-02-29T18:39:55.924Z,17.55
2024-02-29T18:42:41.797Z,18.00
2024-02-29T18:45:26.976Z,15.18
2024-02-29T18:48:12.820Z,16.58
2024-02-29T18:50:58.272Z,17.00
2024-02-29T18:53:43.665Z,18.17
2024-02-29T18:56:28.709Z,12.75
2024-02-29T18:59:15.458Z,19.95
2024-02-29T19:02:02.930Z,15.18
2024-02-29T19:04:52.594Z,14.93
2024-02-29T19:07:38.199Z,13.23
2024-02-29T19:10:24.288Z,13.65
2024-02-29T19:13:09.528Z,16.60
2024-02-29T19:15:54.916Z,12.77
2024-02-29T19:18:41.829Z,21.88
2024-02-29T19:21:26.936Z,13.82
2024-02-29T19:24:12.638Z,16.73
2024-02-29T19:26:58.122Z,18.80
2024-02-29T19:29:43.613Z,12.70
2024-02-29T19:32:28.634Z,12.95
2024-02-29T19:35:13.947Z,12.73
2024-02-29T19:37:59.368Z,16.52
2024-02-29T19:40:44.470Z,13.98
2024-02-29T19:43:29.921Z,16.60
2024-02-29T19:46:15.061Z,15.57
2024-02-29T19:49:00.859Z,12.07
2024-02-29T19:51:46.121Z,14.55
2024-02-29T19:54:31.218Z,11.60
2024-02-29T19:57:16.161Z,11.95
2024-02-29T20:00:01.552Z,14.60
2024-02-29T20:02:46.753Z,13.77
2024-02-29T20:05:32.009Z,12.63
2024-02-29T20:08:17.245Z,13.45
2024-02-29T20:11:02.689Z,16.38
2024-02-29T20:13:48.842Z,18.45
2024-02-29T20:16:34.509Z,18.00
2024-02-29T20:19:19.904Z,17.17
2024-02-29T20:22:05.248Z,15.48
2024-02-29T20:24:51.264Z,13.82
2024-02-29T20:27:37.255Z,17.67
2024-02-29T20:30:23.614Z,15.35
2024-02-29T20:33:09.086Z,17.80
2024-02-29T20:35:54.294Z,15.90
2024-02-29T20:38:39.718Z,13.20
2024-02-29T20:41:25.958Z,14.93
2024-02-29T20:44:11.281Z,16.38
2024-02-29T20:46:56.674Z,16.55
2024-02-29T20:49:43.417Z,15.85
2024-02-29T20:52:28.778Z,15.73
2024-02-29T20:55:14.578Z,13.02
2024-02-29T20:57:59.719Z,13.70
2024-02-29T21:00:45.184Z,12.63
2024-02-29T21:03:30.428Z,16.50
2024-02-29T21:06:16.645Z,15.02
2024-02-29T21:09:01.784Z,15.85
2024-02-29T21:11:47.571Z,14.90
2024-02-29T21:14:32.880Z,18.55
2024-02-29T21:17:18.056Z,13.38
2024-02-29T21:20:03.755Z,20.48
2024-02-29T21:22:49.286Z,13.90
2024-02-29T21:25:34.955Z,15.57
2024-02-29T21:28:20.566Z,23.80
2024-02-29T21:31:05.644Z,15.18
2024-02-29T21:33:50.947Z,14.95
2024-02-29T21:36:36.161Z,20.92
2024-02-29T21:39:28.468Z,15.65
2024-02-29T21:42:22.589Z,21.23
2024-02-29T21:45:08.898Z,26.52
2024-02-29T21:47:55.447Z,19.90
2024-02-29T21:50:41.924Z,16.50
2024-02-29T21:53:27.414Z,19.30
2024-02-29T21:56:16.207Z,16.63
2024-02-29T21:59:01.131Z,18.25
2024-02-29T22:01:47.825Z,13.32
2024-02-29T22:04:33.509Z,14.02
2024-02-29T22:07:18.969Z,14.18
2024-02-29T22:10:04.582Z,18.20
2024-02-29T22:12:49.642Z,20.27
2024-02-29T22:15:35.140Z,18.92
2024-02-29T22:18:20.556Z,17.23
2024-02-29T22:21:06.003Z,17.35
2024-02-29T22:23:51.344Z,13.52
2024-02-29T22:26:36.656Z,17.73
2024-02-29T22:29:23.235Z,16.90
2024-02-29T22:32:08.627Z,18.40
2024-02-29T22:34:53.977Z,17.85
2024-02-29T22:37:40.037Z,16.55
2024-02-29T22:40:26.239Z,18.30
2024-02-29T22:43:12.763Z,15.77
2024-02-29T22:45:57.849Z,14.25
2024-02-29T22:48:43.358Z,21.80
2024-02-29T22:51:28.512Z,15.25
2024-02-29T22:54:13.801Z,13.52
2024-02-29T22:56:59.271Z,16.13
2024-02-29T22:59:44.539Z,16.20
2024-02-29T23:02:29.911Z,21.98
2024-02-29T23:05:15.654Z,13.80
2024-02-29T23:08:01.192Z,15.98
2024-02-29T23:10:46.808Z,12.82
2024-02-29T23:13:32.169Z,14.48
2024-02-29T23:16:17.728Z,19.45
2024-02-29T23:19:03.044Z,21.00
2024-02-29T23:21:48.698Z,24.75
2024-02-29T23:24:34.412Z,14.98
2024-02-29T23:27:19.648Z,18.38
2024-02-29T23:30:09.506Z,17.38
2024-02-29T23:32:54.581Z,19.27
2024-02-29T23:35:39.940Z,26.25
2024-02-29T23:38:25.323Z,16.42
2024-02-29T23:41:10.727Z,17.50
2024-02-29T23:43:56.140Z,19.80
2024-02-29T23:46:42.700Z,20.98
2024-02-29T23:49:28.093Z,19.50
2024-02-29T23:52:13.570Z,17.45
2024-02-29T23:54:58.988Z,14.52
2024-02-29T23:57:44.726Z,15.70
